Caspiana, Louisiana
Current Conditions -  °F | °C
As of 5:23 AM on Sunday 21 Dec 2014 (Local Time) from KSHV Reporting Station
Light Fog Light Fog  
Wind Chill: 36°   Ceiling: 5000
Heat Index: 36°   Visibility: 4mi
Dew Point: 36°   Wind: 3mph
Humidity: 100%   Direction: 240°WSW
Pressure: 30.15"   Gusts: NA
Location:  32.3171°N, 93.6091°W
Report Text: KSHV 211123Z 24003KT 4SM BCFG FEW002 BKN050 02/02 A3015 RMK AO2 T00220022 $
Loading
Personal Weather Stations






























Interactive Weather Map New forecast layout! Learn more

10-Day Weather Forecast

Advertisements
Track Severe Weather on mobile